Pioneer Knutsen — LMIK — position and weather

sailwx.info

Track history (hours):
 
Tides and Currents Weather Stations Pressure Air Temp Water Temp Dewpoint Dewpoint Depression Visibility Wind Speed Wind Dir Waves Ship Positions

Pioneer Knutsen

Last reported at 2015-Mar-03 11:21 UTC. Time now 2015-Mar-04 11:22 UTC.
Position N 63°35' E 009°25'.

Length 70 m; draft 3.6 m.

Type: Tanker. MMSI: 259393000.

Date/timePositionNaut miles runAvg speedWind from/ knotsBaromVisibWave heightAir tempDewpointWater temp
2015-Mar-03 11:21N 63°35' E 009°25'81 6.3
2015-Mar-02 22:33N 64°45' E 010°60'1111.3
2015-Mar-02 21:34N 64°53' E 011°18'1110.9
2015-Mar-02 20:33N 65°00' E 011°38'1412.1
2015-Mar-02 19:26N 65°12' E 011°53'6 0.4
2015-Mar-02 03:05N 65°18' E 011°59'611.2
2015-Mar-02 02:32N 65°12' E 011°53'1111.3
2015-Mar-02 01:33N 65°02' E 011°42'1110.5
2015-Mar-02 00:33N 64°55' E 011°23'1211.8
2015-Mar-01 23:33N 64°47' E 011°04'  
2015-Feb-25 20:31N 62°56' E 008°06'12 0.9
2015-Feb-25 08:05N 63°01' E 007°43'57 1.1
2015-Feb-23 04:20N 63°35' E 009°26'911.4
2015-Feb-23 03:33N 63°44' E 009°32'7911.3
2015-Feb-22 20:33N 64°50' E 011°11'1212.1
2015-Feb-22 19:33N 64°58' E 011°33'20 1.0
2015-Feb-21 23:14N 65°15' E 011°56'7 9.6
2015-Feb-21 22:33N 65°09' E 011°50'9 9.3
2015-Feb-21 21:33N 65°02' E 011°37'9 9.3
2015-Feb-21 20:33N 64°55' E 011°22'8511.6
2015-Feb-21 13:17N 63°45' E 009°32'  
Track history (hours):
 
Tides and Currents Weather Stations Pressure Air Temp Water Temp Dewpoint Dewpoint Depression Visibility Wind Speed Wind Dir Waves Ship Positions

Pioneer Knutsen

Last reported at 2015-Mar-03 11:21 UTC. Time now 2015-Mar-04 11:22 UTC.
Position N 63°35' E 009°25'.

Length 70 m; draft 3.6 m.

Type: Tanker. MMSI: 259393000.

Date/timePositionNaut miles runAvg speedWind from/ knotsBaromVisibWave heightAir tempDewpointWater temp
2015-Mar-03 11:21N 63°35' E 009°25'81 6.3
2015-Mar-02 22:33N 64°45' E 010°60'1111.3
2015-Mar-02 21:34N 64°53' E 011°18'1110.9
2015-Mar-02 20:33N 65°00' E 011°38'1412.1
2015-Mar-02 19:26N 65°12' E 011°53'6 0.4
2015-Mar-02 03:05N 65°18' E 011°59'611.2
2015-Mar-02 02:32N 65°12' E 011°53'1111.3
2015-Mar-02 01:33N 65°02' E 011°42'1110.5
2015-Mar-02 00:33N 64°55' E 011°23'1211.8
2015-Mar-01 23:33N 64°47' E 011°04'  
2015-Feb-25 20:31N 62°56' E 008°06'12 0.9
2015-Feb-25 08:05N 63°01' E 007°43'57 1.1
2015-Feb-23 04:20N 63°35' E 009°26'911.4
2015-Feb-23 03:33N 63°44' E 009°32'7911.3
2015-Feb-22 20:33N 64°50' E 011°11'1212.1
2015-Feb-22 19:33N 64°58' E 011°33'20 1.0
2015-Feb-21 23:14N 65°15' E 011°56'7 9.6
2015-Feb-21 22:33N 65°09' E 011°50'9 9.3
2015-Feb-21 21:33N 65°02' E 011°37'9 9.3
2015-Feb-21 20:33N 64°55' E 011°22'8511.6
2015-Feb-21 13:17N 63°45' E 009°32'  

Dump ship's entire track history